createdAt,value
2019-04-14T00:16:18.449Z,74.4
2019-04-14T00:32:51.044Z,74.8
2019-04-14T00:49:24.743Z,75.2
2019-04-14T01:05:59.038Z,75.2
2019-04-14T01:22:31.521Z,75.2
2019-04-14T01:39:04.774Z,76.0
2019-04-14T01:55:38.114Z,76.0
2019-04-14T02:12:11.195Z,75.6
2019-04-14T02:28:44.378Z,76.4
2019-04-14T02:45:52.152Z,76.4
2019-04-14T03:18:52.539Z,77.2
2019-04-14T04:08:02.716Z,77.2
2019-04-14T04:24:35.144Z,77.6
2019-04-14T04:41:07.939Z,77.6
2019-04-14T04:57:39.564Z,77.2
2019-04-14T05:14:13.036Z,77.2
2019-04-14T05:30:45.729Z,77.2
2019-04-14T05:47:17.710Z,77.2
2019-04-14T06:03:49.901Z,76.8
2019-04-14T06:20:23.243Z,76.4
2019-04-14T06:33:38.193Z,76.0
2019-04-14T06:50:12.058Z,74.8
2019-04-14T07:06:45.968Z,74.0
2019-04-14T07:23:20.217Z,72.8
2019-04-14T07:39:54.477Z,72.4
2019-04-14T07:53:10.219Z,70.4
2019-04-14T08:03:07.036Z,70.8
2019-04-14T08:16:23.065Z,68.4
2019-04-14T08:29:39.465Z,67.2
2019-04-14T08:46:16.846Z,65.2
2019-04-14T08:59:32.301Z,61.6
2019-04-14T09:06:11.240Z,64.0
2019-04-14T09:09:29.900Z,59.6
2019-04-14T09:16:08.774Z,62.8
2019-04-14T09:26:06.568Z,61.6
2019-04-14T09:32:45.295Z,59.6
2019-04-14T09:36:04.786Z,61.6
2019-04-14T09:46:04.236Z,58.0
2019-04-14T09:49:22.584Z,60.0
2019-04-14T09:59:20.977Z,57.2
2019-04-14T10:15:58.401Z,54.4
2019-04-14T10:19:18.622Z,56.4
2019-04-14T10:29:18.206Z,54.4
2019-04-14T10:42:34.596Z,56.4
2019-04-14T10:45:54.152Z,54.8
2019-04-14T10:49:13.919Z,52.4
2019-04-14T10:59:12.951Z,53.6
2019-04-14T11:05:52.451Z,52.8
2019-04-14T11:15:52.006Z,50.4
2019-04-14T11:22:31.483Z,52.4
2019-04-14T11:35:51.162Z,49.2
2019-04-14T11:39:10.192Z,52.0
2019-04-14T11:49:09.244Z,50.0
2019-04-14T11:55:48.660Z,52.0
2019-04-14T12:02:27.953Z,52.4
2019-04-14T12:05:47.783Z,50.4
2019-04-14T12:12:27.896Z,47.6
2019-04-14T12:15:47.123Z,48.4
2019-04-14T12:29:06.422Z,50.8
2019-04-14T12:45:44.504Z,50.8
2019-04-14T13:02:23.277Z,50.0
2019-04-14T13:09:02.971Z,48.0
2019-04-14T13:25:42.604Z,49.6
2019-04-14T13:42:20.810Z,50.4
2019-04-14T13:55:40.906Z,50.8
2019-04-14T14:12:18.410Z,51.2
2019-04-14T14:28:57.084Z,50.0
2019-04-14T14:45:35.752Z,50.4
2019-04-14T15:02:14.004Z,52.0
2019-04-14T15:18:52.606Z,52.0
2019-04-14T15:35:30.217Z,51.6
2019-04-14T15:52:08.318Z,52.0
2019-04-14T16:08:46.603Z,53.6
2019-04-14T16:25:23.450Z,55.2
2019-04-14T16:42:00.898Z,55.6
2019-04-14T16:58:38.984Z,56.4
2019-04-14T17:15:15.504Z,58.4
2019-04-14T17:31:52.383Z,59.6
2019-04-14T17:48:29.178Z,60.0
2019-04-14T18:05:06.137Z,62.0
2019-04-14T18:21:44.294Z,62.8
2019-04-14T18:38:21.019Z,64.4
2019-04-14T18:55:00.487Z,65.6
2019-04-14T19:11:34.463Z,65.6
2019-04-14T19:28:08.253Z,66.8
2019-04-14T19:44:44.006Z,66.8
2019-04-14T20:01:20.761Z,68.4
2019-04-14T20:17:56.248Z,68.4
2019-04-14T20:34:32.387Z,68.8
2019-04-14T20:51:08.476Z,68.8
2019-04-14T21:07:46.123Z,68.8
2019-04-14T21:24:23.215Z,68.8
2019-04-14T21:40:57.996Z,68.8
2019-04-14T21:57:33.229Z,69.2
2019-04-14T22:14:09.234Z,70.0
2019-04-14T22:30:44.937Z,70.4
2019-04-14T22:47:20.541Z,70.0
2019-04-14T23:03:56.293Z,70.4
2019-04-14T23:20:32.094Z,70.8
2019-04-14T23:37:07.828Z,71.2
2019-04-14T23:53:43.563Z,72.0
